createdAt,value
2017-12-01T00:00:42.043Z,10.47
2017-12-01T00:03:10.336Z,9.40
2017-12-01T00:05:39.402Z,9.27
2017-12-01T00:08:07.710Z,8.13
2017-12-01T00:10:36.000Z,7.20
2017-12-01T00:13:04.288Z,8.10
2017-12-01T00:15:32.609Z,7.20
2017-12-01T00:18:00.913Z,7.20
2017-12-01T00:20:29.209Z,8.32
2017-12-01T00:22:58.282Z,7.00
2017-12-01T00:25:27.356Z,6.30
2017-12-01T00:27:55.672Z,8.47
2017-12-01T00:30:23.957Z,7.23
2017-12-01T00:32:52.265Z,8.30
2017-12-01T00:35:20.553Z,7.90
2017-12-01T00:37:48.825Z,7.43
2017-12-01T00:40:17.121Z,8.97
2017-12-01T00:42:46.174Z,7.10
2017-12-01T00:45:14.470Z,7.20
2017-12-01T00:47:42.769Z,8.87
2017-12-01T00:50:11.930Z,6.20
2017-12-01T00:52:40.212Z,10.83
2017-12-01T00:55:08.525Z,6.10
2017-12-01T00:57:36.832Z,5.90
2017-12-01T01:00:05.119Z,7.97
2017-12-01T01:02:33.409Z,5.67
2017-12-01T01:05:01.700Z,9.80
2017-12-01T01:07:29.993Z,8.17
2017-12-01T01:09:58.303Z,9.50
2017-12-01T01:12:27.149Z,14.20
2017-12-01T01:14:55.433Z,15.73
2017-12-01T01:17:23.732Z,14.03
2017-12-01T01:19:52.817Z,14.23
2017-12-01T01:22:21.877Z,12.55
2017-12-01T01:24:50.189Z,10.40
2017-12-01T01:27:18.519Z,15.50
2017-12-01T01:29:47.580Z,14.47
2017-12-01T01:32:16.690Z,14.23
2017-12-01T01:34:44.995Z,17.63
2017-12-01T01:37:13.278Z,13.75
2017-12-01T01:39:41.577Z,18.60
2017-12-01T01:42:09.872Z,17.90
2017-12-01T01:44:38.929Z,13.95
2017-12-01T01:47:07.228Z,18.30
2017-12-01T01:49:35.508Z,18.70
2017-12-01T01:52:04.574Z,17.63
2017-12-01T01:54:32.868Z,17.70
2017-12-01T01:57:01.165Z,12.10
2017-12-01T01:59:29.456Z,17.83
2017-12-01T02:01:57.761Z,18.40
2017-12-01T02:04:26.049Z,14.98
2017-12-01T02:06:54.345Z,16.30
2017-12-01T02:09:22.634Z,16.07
2017-12-01T02:11:50.946Z,13.00
2017-12-01T02:14:19.250Z,14.40
2017-12-01T02:16:48.189Z,14.10
2017-12-01T02:19:17.250Z,15.70
2017-12-01T02:21:45.591Z,13.43
2017-12-01T02:24:13.915Z,15.70
2017-12-01T02:26:43.357Z,17.60
2017-12-01T02:29:11.671Z,15.47
2017-12-01T02:31:39.986Z,12.83
2017-12-01T02:34:08.411Z,14.85
2017-12-01T02:36:36.709Z,16.47
2017-12-01T02:39:04.997Z,13.47
2017-12-01T02:41:33.313Z,16.20
2017-12-01T02:44:01.606Z,14.80
2017-12-01T02:46:29.900Z,19.10
2017-12-01T02:48:58.180Z,17.33
2017-12-01T02:51:26.476Z,14.90
2017-12-01T02:53:54.790Z,11.25
2017-12-01T02:56:23.086Z,11.10
2017-12-01T02:58:51.376Z,11.40
2017-12-01T03:01:19.661Z,12.57
2017-12-01T03:03:47.962Z,14.70
2017-12-01T03:06:16.266Z,11.40
2017-12-01T03:08:44.581Z,12.03
2017-12-01T03:11:12.866Z,10.90
2017-12-01T03:13:41.192Z,10.03
2017-12-01T03:16:09.478Z,10.17
2017-12-01T03:18:37.783Z,13.23
2017-12-01T03:21:06.073Z,11.00
2017-12-01T03:23:34.386Z,11.27
2017-12-01T03:26:02.683Z,13.82
2017-12-01T03:28:30.997Z,12.48
2017-12-01T03:30:59.290Z,11.40
2017-12-01T03:33:27.580Z,14.30
2017-12-01T03:35:55.889Z,13.10
2017-12-01T03:38:24.185Z,11.48
2017-12-01T03:40:52.483Z,14.30
2017-12-01T03:43:20.780Z,14.20
2017-12-01T03:45:49.069Z,15.30
2017-12-01T03:48:17.369Z,17.65
2017-12-01T03:50:46.449Z,16.70
2017-12-01T03:53:14.753Z,13.70
2017-12-01T03:55:43.805Z,14.30
2017-12-01T03:58:12.099Z,18.13
2017-12-01T04:00:40.390Z,15.73
2017-12-01T04:03:08.682Z,15.30
2017-12-01T04:05:36.977Z,16.10
2017-12-01T04:08:05.316Z,19.60
2017-12-01T04:10:34.368Z,15.63
2017-12-01T04:13:02.665Z,22.10
2017-12-01T04:15:30.974Z,17.03
2017-12-01T04:17:59.269Z,20.15
2017-12-01T04:20:27.561Z,17.62
2017-12-01T04:22:55.858Z,23.90
2017-12-01T04:25:24.158Z,26.20
2017-12-01T04:27:52.461Z,28.37
2017-12-01T04:30:20.758Z,28.77
2017-12-01T04:32:49.048Z,23.23
2017-12-01T04:35:18.100Z,30.07
2017-12-01T04:37:47.149Z,30.30
2017-12-01T04:40:15.452Z,34.70
2017-12-01T04:42:43.750Z,30.20
2017-12-01T04:45:12.041Z,28.03
2017-12-01T04:47:41.072Z,23.00
2017-12-01T04:50:09.351Z,19.40
2017-12-01T04:52:37.696Z,22.50
2017-12-01T04:55:05.995Z,19.47
2017-12-01T04:57:34.278Z,20.58
2017-12-01T05:00:03.004Z,20.33
2017-12-01T05:02:31.316Z,18.00
2017-12-01T05:04:59.613Z,21.13
2017-12-01T05:07:27.936Z,16.57
2017-12-01T05:09:57.002Z,18.53
2017-12-01T05:12:25.305Z,19.97
2017-12-01T05:14:53.585Z,18.43
2017-12-01T05:17:21.890Z,21.00
2017-12-01T05:19:50.253Z,18.90
2017-12-01T05:22:18.549Z,17.53
2017-12-01T05:24:46.846Z,22.60
2017-12-01T05:27:15.137Z,16.70
2017-12-01T05:29:43.420Z,22.17
2017-12-01T05:32:11.700Z,18.83
2017-12-01T05:34:39.989Z,14.65
2017-12-01T05:37:08.273Z,17.67
2017-12-01T05:39:36.556Z,16.53
2017-12-01T05:42:05.619Z,17.67
2017-12-01T05:44:33.901Z,20.83
2017-12-01T05:47:02.192Z,15.88
2017-12-01T05:49:30.504Z,18.97
2017-12-01T05:51:58.788Z,17.40
2017-12-01T05:54:27.081Z,17.07
2017-12-01T05:56:56.156Z,18.00
2017-12-01T05:59:24.444Z,23.73
2017-12-01T06:01:52.732Z,21.70
2017-12-01T06:04:21.028Z,21.30
2017-12-01T06:06:49.321Z,19.83
2017-12-01T06:09:18.381Z,21.10
2017-12-01T06:11:46.670Z,24.23
2017-12-01T06:14:14.965Z,18.93
2017-12-01T06:16:44.118Z,22.10
2017-12-01T06:19:12.425Z,21.63
2017-12-01T06:21:40.721Z,21.30
2017-12-01T06:24:09.027Z,19.90
2017-12-01T06:26:37.665Z,23.17
2017-12-01T06:29:05.955Z,19.30
2017-12-01T06:31:34.259Z,19.17
2017-12-01T06:34:02.554Z,18.30
2017-12-01T06:36:30.881Z,19.47
2017-12-01T06:38:59.154Z,17.57
2017-12-01T06:41:27.447Z,21.10
2017-12-01T06:43:56.489Z,24.13
2017-12-01T06:46:24.773Z,21.67
2017-12-01T06:48:53.057Z,19.53
2017-12-01T06:51:21.345Z,23.17
2017-12-01T06:53:49.639Z,17.00
2017-12-01T06:56:18.688Z,21.17
2017-12-01T06:58:46.987Z,21.63
2017-12-01T07:01:15.288Z,26.37
2017-12-01T07:03:44.357Z,27.57
2017-12-01T07:06:12.657Z,21.50
2017-12-01T07:08:40.947Z,23.58
2017-12-01T07:11:09.236Z,28.52
2017-12-01T07:13:37.524Z,21.13
2017-12-01T07:16:05.811Z,19.30
2017-12-01T07:18:34.089Z,23.50
2017-12-01T07:21:02.405Z,22.30
2017-12-01T07:23:30.696Z,21.03
2017-12-01T07:25:59.566Z,15.60
2017-12-01T07:28:27.860Z,19.15
2017-12-01T07:30:56.140Z,19.53
2017-12-01T07:33:24.410Z,15.00
2017-12-01T07:35:53.447Z,21.03
2017-12-01T07:38:21.728Z,23.00
2017-12-01T07:40:50.018Z,18.30
2017-12-01T07:43:18.302Z,14.47
2017-12-01T07:45:46.593Z,18.20
2017-12-01T07:48:14.882Z,17.40
2017-12-01T07:50:43.169Z,16.85
2017-12-01T07:53:11.452Z,15.40
2017-12-01T07:55:40.515Z,12.03
2017-12-01T07:58:08.809Z,12.90
2017-12-01T08:00:37.857Z,13.75
2017-12-01T08:03:06.153Z,15.75
2017-12-01T08:05:34.441Z,12.70
2017-12-01T08:08:02.730Z,13.87
2017-12-01T08:10:33.017Z,13.93
2017-12-01T08:13:01.334Z,12.73
2017-12-01T08:15:29.624Z,13.90
2017-12-01T08:21:13.494Z,10.93
2017-12-01T08:26:56.167Z,12.73
2017-12-01T08:29:24.459Z,10.67
2017-12-01T08:31:52.755Z,12.40
2017-12-01T08:34:21.079Z,9.53
2017-12-01T08:36:49.355Z,15.07
2017-12-01T08:39:17.644Z,10.37
2017-12-01T08:41:45.945Z,13.40
2017-12-01T08:44:14.244Z,15.07
2017-12-01T08:46:43.825Z,13.45
2017-12-01T08:49:12.161Z,15.20
2017-12-01T08:51:40.444Z,14.40
2017-12-01T08:54:08.722Z,12.00
2017-12-01T08:56:37.001Z,10.13
2017-12-01T08:59:05.291Z,15.35
2017-12-01T09:01:33.569Z,12.17
2017-12-01T09:04:01.864Z,14.33
2017-12-01T09:06:30.174Z,11.83
2017-12-01T09:08:58.457Z,14.00
2017-12-01T09:11:26.746Z,10.20
2017-12-01T09:13:55.028Z,9.10
2017-12-01T09:16:23.509Z,11.43
2017-12-01T09:18:51.793Z,11.32
2017-12-01T09:21:20.072Z,12.50
2017-12-01T09:23:48.367Z,12.10
2017-12-01T09:26:17.244Z,11.03
2017-12-01T09:28:45.521Z,10.52
2017-12-01T09:31:13.803Z,7.60
2017-12-01T09:33:42.097Z,6.93
2017-12-01T09:36:10.408Z,8.70
2017-12-01T09:38:38.694Z,28.63
2017-12-01T09:41:06.982Z,15.70
2017-12-01T09:43:35.266Z,13.05
2017-12-01T09:46:03.554Z,12.40
2017-12-01T09:48:31.852Z,11.83
2017-12-01T09:51:00.137Z,16.80
2017-12-01T09:53:28.440Z,19.40
2017-12-01T09:55:56.725Z,22.80
2017-12-01T09:58:25.845Z,11.30
2017-12-01T10:00:54.133Z,9.30
2017-12-01T10:03:22.432Z,14.90
2017-12-01T10:05:50.762Z,10.40
2017-12-01T10:08:19.084Z,10.43
2017-12-01T10:10:47.376Z,12.85
2017-12-01T10:13:15.668Z,11.23
2017-12-01T10:15:43.956Z,8.20
2017-12-01T10:18:12.249Z,9.90
2017-12-01T10:20:40.530Z,10.40
2017-12-01T10:23:08.814Z,14.53
2017-12-01T10:25:37.083Z,8.83
2017-12-01T10:28:05.367Z,12.20
2017-12-01T10:30:33.642Z,15.37
2017-12-01T10:33:01.922Z,13.70
2017-12-01T10:35:30.199Z,9.90
2017-12-01T10:37:58.476Z,10.40
2017-12-01T10:40:26.771Z,10.33
2017-12-01T10:42:55.083Z,14.73
2017-12-01T10:45:23.372Z,10.13
2017-12-01T10:47:51.671Z,11.10
2017-12-01T10:50:19.957Z,14.43
2017-12-01T10:52:48.237Z,11.43
2017-12-01T10:55:16.512Z,12.40
2017-12-01T10:57:44.792Z,11.87
2017-12-01T11:00:13.076Z,10.63
2017-12-01T11:02:41.369Z,7.22
2017-12-01T11:05:09.660Z,10.60
2017-12-01T11:07:38.702Z,9.63
2017-12-01T11:10:08.001Z,9.23
2017-12-01T11:12:36.336Z,9.63
2017-12-01T11:15:05.377Z,7.97
2017-12-01T11:17:33.678Z,7.30
2017-12-01T11:20:01.983Z,5.13
2017-12-01T11:22:30.265Z,6.37
2017-12-01T11:24:59.235Z,7.37
2017-12-01T11:27:27.521Z,6.10
2017-12-01T11:29:55.824Z,7.17
2017-12-01T11:32:24.908Z,7.43
2017-12-01T11:34:54.028Z,8.00
2017-12-01T11:37:22.400Z,13.17
2017-12-01T11:39:50.692Z,25.03
2017-12-01T11:42:19.141Z,13.03
2017-12-01T11:44:48.220Z,9.73
2017-12-01T11:47:16.531Z,10.27
2017-12-01T11:49:44.819Z,11.17
2017-12-01T11:52:13.120Z,11.03
2017-12-01T11:54:41.400Z,12.70
2017-12-01T11:57:09.693Z,13.00
2017-12-01T11:59:38.069Z,12.27
2017-12-01T12:02:06.391Z,12.83
2017-12-01T12:04:35.443Z,12.60
2017-12-01T12:07:03.849Z,15.23
2017-12-01T12:09:32.936Z,13.90
2017-12-01T12:12:01.312Z,15.27
2017-12-01T12:14:29.587Z,16.30
2017-12-01T12:16:58.634Z,16.25
2017-12-01T12:19:26.924Z,14.17
2017-12-01T12:21:55.440Z,17.58
2017-12-01T12:24:23.724Z,16.90
2017-12-01T12:26:52.018Z,15.40
2017-12-01T12:29:20.351Z,18.10
2017-12-01T12:31:48.645Z,16.60
2017-12-01T12:34:16.936Z,16.60
2017-12-01T12:36:46.365Z,18.23
2017-12-01T12:39:14.679Z,16.47
2017-12-01T12:41:42.965Z,21.13
2017-12-01T12:44:11.263Z,15.27
2017-12-01T12:46:41.954Z,18.70
2017-12-01T12:49:10.241Z,15.52
2017-12-01T12:51:38.530Z,14.10
2017-12-01T12:54:06.817Z,16.60
2017-12-01T12:56:35.109Z,16.80
2017-12-01T12:59:03.395Z,16.47
2017-12-01T13:01:31.682Z,18.10
2017-12-01T13:04:00.854Z,16.10
2017-12-01T13:06:29.144Z,16.92
2017-12-01T13:08:57.445Z,17.60
2017-12-01T13:11:26.678Z,21.33
2017-12-01T13:13:54.969Z,21.17
2017-12-01T13:16:23.273Z,23.40
2017-12-01T13:18:51.564Z,21.03
2017-12-01T13:21:19.848Z,20.93
2017-12-01T13:23:48.900Z,22.40
2017-12-01T13:26:17.189Z,22.97
2017-12-01T13:28:45.496Z,16.63
2017-12-01T13:31:13.784Z,24.37
2017-12-01T13:33:42.069Z,33.10
2017-12-01T13:36:10.349Z,27.67
2017-12-01T13:38:38.628Z,26.10
2017-12-01T13:41:06.933Z,27.90
2017-12-01T13:43:35.236Z,36.13
2017-12-01T13:46:03.532Z,33.80
2017-12-01T13:48:31.825Z,25.57
2017-12-01T13:51:00.129Z,23.27
2017-12-01T13:53:28.416Z,26.57
2017-12-01T13:55:56.706Z,29.23
2017-12-01T13:58:25.027Z,28.60
2017-12-01T14:00:53.317Z,43.07
2017-12-01T14:03:21.608Z,24.70
2017-12-01T14:05:49.891Z,30.57
2017-12-01T14:08:18.184Z,42.03
2017-12-01T14:10:46.478Z,32.20
2017-12-01T14:13:14.769Z,28.37
2017-12-01T14:15:43.073Z,23.13
2017-12-01T14:18:11.369Z,24.75
2017-12-01T14:20:39.661Z,24.03
2017-12-01T14:23:07.968Z,24.93
2017-12-01T14:25:36.260Z,24.10
2017-12-01T14:28:04.544Z,23.20
2017-12-01T14:30:32.826Z,22.40
2017-12-01T14:33:01.116Z,26.73
2017-12-01T14:35:29.406Z,31.80
2017-12-01T14:37:57.700Z,30.60
2017-12-01T14:40:25.989Z,33.23
2017-12-01T14:42:54.272Z,28.50
2017-12-01T14:45:22.555Z,28.23
2017-12-01T14:47:50.852Z,24.47
2017-12-01T14:50:19.141Z,22.37
2017-12-01T14:52:47.445Z,19.87
2017-12-01T14:55:15.736Z,23.10
2017-12-01T14:57:44.016Z,24.67
2017-12-01T15:00:12.295Z,26.35
2017-12-01T15:02:40.577Z,21.07
2017-12-01T15:05:08.860Z,21.90
2017-12-01T15:07:37.178Z,20.40
2017-12-01T15:10:06.893Z,16.37
2017-12-01T15:12:35.142Z,19.10
2017-12-01T15:15:03.421Z,18.10
2017-12-01T15:17:31.704Z,19.37
2017-12-01T15:19:59.992Z,22.80
2017-12-01T15:22:28.289Z,29.90
2017-12-01T15:24:56.622Z,21.08
2017-12-01T15:27:24.897Z,15.57
2017-12-01T15:29:53.182Z,21.90
2017-12-01T15:32:21.466Z,19.57
2017-12-01T15:34:49.753Z,21.15
2017-12-01T15:37:18.061Z,15.30
2017-12-01T15:39:46.371Z,18.47
2017-12-01T15:42:14.650Z,16.13
2017-12-01T15:44:43.618Z,17.90
2017-12-01T15:47:12.660Z,13.60
2017-12-01T15:49:40.949Z,19.90
2017-12-01T15:52:09.229Z,14.73
2017-12-01T15:54:37.517Z,15.00
2017-12-01T15:57:05.800Z,13.52
2017-12-01T15:59:34.088Z,15.53
2017-12-01T16:02:02.369Z,15.00
2017-12-01T16:04:30.660Z,17.73
2017-12-01T16:06:58.964Z,15.15
2017-12-01T16:09:27.252Z,14.87
2017-12-01T16:11:55.539Z,16.90
2017-12-01T16:14:23.833Z,14.83
2017-12-01T16:16:52.122Z,12.80
2017-12-01T16:19:21.693Z,13.32
2017-12-01T16:21:49.990Z,14.17
2017-12-01T16:24:18.303Z,14.00
2017-12-01T16:26:46.580Z,13.70
2017-12-01T16:29:14.873Z,11.80
2017-12-01T16:31:43.341Z,14.00
2017-12-01T16:34:11.621Z,13.90
2017-12-01T16:36:40.699Z,15.00
2017-12-01T16:39:08.988Z,14.30
2017-12-01T16:41:37.281Z,15.60
2017-12-01T16:44:05.580Z,14.63
2017-12-01T16:46:33.870Z,18.50
2017-12-01T16:49:02.941Z,18.42
2017-12-01T16:51:31.232Z,15.90
2017-12-01T16:53:59.528Z,18.27
2017-12-01T16:56:27.822Z,22.80
2017-12-01T16:58:56.115Z,23.20
2017-12-01T17:01:24.479Z,22.90
2017-12-01T17:03:52.732Z,20.67
2017-12-01T17:06:21.028Z,19.27
2017-12-01T17:08:49.824Z,25.67
2017-12-01T17:11:18.121Z,26.20
2017-12-01T17:13:46.405Z,20.93
2017-12-01T17:16:14.690Z,17.87
2017-12-01T17:18:42.986Z,20.37
2017-12-01T17:21:11.268Z,23.33
2017-12-01T17:23:41.272Z,25.20
2017-12-01T17:26:09.573Z,19.93
2017-12-01T17:28:37.864Z,16.90
2017-12-01T17:31:06.904Z,14.13
2017-12-01T17:33:35.657Z,16.37
2017-12-01T17:36:03.961Z,18.50
2017-12-01T17:38:32.252Z,20.33
2017-12-01T17:41:00.548Z,24.25
2017-12-01T17:43:28.821Z,21.20
2017-12-01T17:45:57.111Z,20.43
2017-12-01T17:48:26.163Z,17.33
2017-12-01T17:50:54.458Z,18.00
2017-12-01T17:53:22.739Z,16.40
2017-12-01T17:55:51.033Z,19.03
2017-12-01T17:58:19.337Z,20.27
2017-12-01T18:00:47.625Z,18.80
2017-12-01T18:03:15.912Z,23.10
2017-12-01T18:05:44.238Z,18.65
2017-12-01T18:08:12.547Z,17.30
2017-12-01T18:10:40.853Z,15.10
2017-12-01T18:13:09.144Z,11.75
2017-12-01T18:15:37.426Z,17.97
2017-12-01T18:18:05.714Z,12.93
2017-12-01T18:20:33.996Z,12.73
2017-12-01T18:23:03.056Z,16.10
2017-12-01T18:25:31.353Z,17.80
2017-12-01T18:27:59.640Z,17.17
2017-12-01T18:30:27.925Z,22.87
2017-12-01T18:32:56.978Z,24.70
2017-12-01T18:35:25.264Z,20.97
2017-12-01T18:37:53.584Z,14.60
2017-12-01T18:40:21.889Z,14.70
2017-12-01T18:42:50.220Z,13.03
2017-12-01T18:45:18.511Z,16.57
2017-12-01T18:47:47.553Z,14.00
2017-12-01T18:50:16.621Z,17.67
2017-12-01T18:52:44.973Z,19.87
2017-12-01T18:55:13.267Z,15.90
2017-12-01T18:57:41.664Z,19.10
2017-12-01T19:00:10.029Z,21.33
2017-12-01T19:02:38.321Z,20.60
2017-12-01T19:05:06.607Z,18.13
2017-12-01T19:07:35.002Z,13.70
2017-12-01T19:10:03.375Z,11.53
2017-12-01T19:12:31.861Z,18.37
2017-12-01T19:15:00.196Z,22.70
2017-12-01T19:17:28.626Z,20.37
2017-12-01T19:19:57.291Z,24.67
2017-12-01T19:22:26.110Z,26.27
2017-12-01T19:24:54.834Z,22.63
2017-12-01T19:27:23.654Z,22.00
2017-12-01T19:29:52.935Z,20.27
2017-12-01T19:32:22.161Z,14.77
2017-12-01T19:34:51.298Z,18.30
2017-12-01T19:37:21.166Z,18.40
2017-12-01T19:39:51.311Z,23.70
2017-12-01T19:42:21.173Z,17.13
2017-12-01T19:44:50.750Z,11.87
2017-12-01T19:47:20.683Z,12.83
2017-12-01T19:49:50.697Z,17.20
2017-12-01T19:52:20.353Z,14.80
2017-12-01T19:54:50.161Z,18.13
2017-12-01T19:57:19.956Z,11.30
2017-12-01T19:59:49.644Z,14.93
2017-12-01T20:02:19.344Z,13.13
2017-12-01T20:04:49.822Z,19.10
2017-12-01T20:07:19.700Z,13.55
2017-12-01T20:09:49.625Z,13.87
2017-12-01T20:12:20.540Z,13.63
2017-12-01T20:14:51.188Z,13.10
2017-12-01T20:17:21.269Z,12.33
2017-12-01T20:19:51.119Z,13.47
2017-12-01T20:22:21.032Z,12.70
2017-12-01T20:24:51.074Z,13.87
2017-12-01T20:27:21.075Z,10.53
2017-12-01T20:29:51.154Z,13.73
2017-12-01T20:32:21.189Z,13.20
2017-12-01T20:34:51.156Z,13.90
2017-12-01T20:37:20.969Z,14.10
2017-12-01T20:39:51.061Z,15.20
2017-12-01T20:42:21.009Z,14.50
2017-12-01T20:44:50.880Z,11.93
2017-12-01T20:47:20.767Z,13.17
2017-12-01T20:49:51.079Z,16.80
2017-12-01T20:52:21.927Z,14.33
2017-12-01T20:54:52.033Z,16.70
2017-12-01T20:57:22.011Z,15.43
2017-12-01T20:59:51.975Z,16.77
2017-12-01T21:02:22.694Z,18.43
2017-12-01T21:04:52.548Z,14.33
2017-12-01T21:07:23.213Z,15.60
2017-12-01T21:09:53.225Z,14.30
2017-12-01T21:12:23.071Z,17.13
2017-12-01T21:14:53.685Z,17.17
2017-12-01T21:17:24.224Z,18.83
2017-12-01T21:19:54.068Z,18.60
2017-12-01T21:22:24.722Z,15.77
2017-12-01T21:24:54.594Z,22.40
2017-12-01T21:27:24.549Z,21.42
2017-12-01T21:29:55.274Z,17.73
2017-12-01T21:32:25.957Z,23.43
2017-12-01T21:34:56.700Z,17.70
2017-12-01T21:37:27.317Z,16.93
2017-12-01T21:39:57.132Z,11.80
2017-12-01T21:42:26.767Z,15.40
2017-12-01T21:44:55.907Z,16.95
2017-12-01T21:47:26.418Z,16.83
2017-12-01T21:49:55.364Z,13.73
2017-12-01T21:52:24.704Z,11.70
2017-12-01T21:54:53.673Z,15.20
2017-12-01T21:57:22.598Z,15.70
2017-12-01T21:59:51.224Z,15.57
2017-12-01T22:02:20.751Z,17.73
2017-12-01T22:04:49.137Z,18.37
2017-12-01T22:07:23.585Z,20.67
2017-12-01T22:09:52.026Z,18.90
2017-12-01T22:12:20.455Z,17.67
2017-12-01T22:14:48.773Z,22.13
2017-12-01T22:17:17.359Z,22.37
2017-12-01T22:19:45.665Z,20.30
2017-12-01T22:22:14.710Z,22.43
2017-12-01T22:24:42.983Z,15.47
2017-12-01T22:27:11.288Z,16.00
2017-12-01T22:29:40.117Z,21.30
2017-12-01T22:32:08.421Z,20.20
2017-12-01T22:34:36.721Z,19.10
2017-12-01T22:37:05.387Z,20.70
2017-12-01T22:39:33.680Z,21.70
2017-12-01T22:42:02.590Z,24.80
2017-12-01T22:44:30.920Z,25.90
2017-12-01T22:46:59.247Z,21.10
2017-12-01T22:49:27.546Z,20.37
2017-12-01T22:51:55.841Z,19.90
2017-12-01T22:54:24.156Z,22.60
2017-12-01T22:56:52.484Z,26.83
2017-12-01T22:59:20.817Z,23.40
2017-12-01T23:01:49.110Z,21.80
2017-12-01T23:04:17.413Z,26.12
2017-12-01T23:06:45.717Z,24.63
2017-12-01T23:09:14.038Z,22.95
2017-12-01T23:11:42.376Z,22.47
2017-12-01T23:14:10.742Z,17.63
2017-12-01T23:16:39.071Z,21.90
2017-12-01T23:19:07.389Z,25.10
2017-12-01T23:21:35.717Z,24.80
2017-12-01T23:24:04.783Z,20.27
2017-12-01T23:26:33.098Z,23.40
2017-12-01T23:29:02.159Z,20.70
2017-12-01T23:31:30.479Z,20.98
2017-12-01T23:33:58.825Z,26.67
2017-12-01T23:36:27.141Z,29.87
2017-12-01T23:38:55.498Z,29.50
2017-12-01T23:41:23.812Z,40.58
2017-12-01T23:43:53.593Z,30.77
2017-12-01T23:46:22.686Z,28.43
2017-12-01T23:48:50.998Z,25.27
2017-12-01T23:51:19.327Z,22.50
2017-12-01T23:53:47.644Z,26.90
2017-12-01T23:56:15.963Z,24.77
2017-12-01T23:58:44.312Z,25.90
